Francisco Araujo

Scout - Estoril Praia
4 Apr 2027
Sunday
Process

Personality

Adaptability (9) Ambition (11) Controversy (6) Loyalty (2) Pressure (10) Professionalism (16) Sportsmanship (14) Temperament (9)

Profile

Coaching Style Democratic
License Continental B
Determination 8
Man Management 6
Motivating 12
Discipline 7
Job Satisfaction
100%
Fatigue
0%
Role Scout
Wage 83.5K p/w
Contract 14.03.2029

Performance

Behaviour Good
Training Effectiveness
31%
Player Development
25%
Injury Prevention
60%
Tactical Implementation
45%

Recent Events

Attended a recruitment meeting now
Attended a recruitment meeting now
Assessed a player now
Assessed a player now
Assessed a player now
Assessed a player now
Observed a match 7d ago
Assessed a player 7d ago

Currently Monitoring

100
Player Club Status Ability Confidence Watched Last Observed Latest Vote
Relebohile Mofokeng Orlando Pirates Active 129 / 130 40% 8 03.04.2027 -
Javi Vázquez Torreense Active 132 / 121 40% 1 03.04.2027 -
Vanja Dragojević Partizan Active 120 / 113 40% 3 01.04.2027 -
Arjan Malić Sturm Graz Active 127 / 122 40% 2 01.04.2027 -
Figueiredo Alverca Active 132 / 124 40% 1 01.04.2027 -
Manolo Portanova Reggiana Active 129 / 129 40% 1 01.04.2027 -
Patrik Wålemark Lech Active 119 / 130 40% 6 30.03.2027 -
Sayfallah Ltaief Cracovia Active 141 / 126 40% 4 30.03.2027 -
Emirhan Başyiğit Sivasspor Active 116 / 110 40% 1 30.03.2027 -
Augusto Bando Ascoli Active 100 / 115 40% 1 30.03.2027 -
Andrés Gómez Vasco da Gama Active 129 / 129 40% 1 27.03.2027 -
Martim Cunha Porto Active 85 / 107 40% 2 25.03.2027 -
Francisco Chissumba Braga Active 119 / 128 40% 1 25.03.2027 -
Jack Currie Oxford United Active 131 / 127 40% 3 24.03.2027 -
Rodrigo Ramos Moreirense Active 102 / 113 40% 1 24.03.2027 -
João Capucho Benfica Active 85 / 102 40% 1 23.03.2027 -
Halam Loboa Independiente Medellin Active 108 / 131 40% 1 23.03.2027 -
Ibrahim Cissoko Zwolle Active 123 / 119 40% 4 21.03.2027 -
Tony Strata Vitoria Guimaraes Active 127 / 117 40% 1 21.03.2027 -
Yira Sor Racing Genk Active 116 / 123 40% 3 20.03.2027 -
Luciano Juba Bahia Active 145 / 138 40% 1 20.03.2027 -
Peter Federico Gornik Zabrze Active 135 / 132 40% 3 18.03.2027 -
Haissem Hassan Bloemfontein Celtic Active 149 / 122 40% 4 16.03.2027 -
João Loiola Fluminense Active 95 / 113 40% 1 16.03.2027 -
Jakub Jendryka Ruch Active 97 / 89 40% 1 16.03.2027 -
Brandon Aguilera Rio Ave Active 105 / 127 40% 1 15.03.2027 -
Armstrong Oko-Flex Levski Active 105 / 109 40% 1 15.03.2027 -
Juan Bezerra Zamalek Active 133 / 126 40% 3 14.03.2027 Monitor
Dedé São Paulo Active 80 / 98 40% 1 12.03.2027 -
John Yeboah Venezia Active 114 / 115 40% 1 10.03.2027 -
Juho Lähteenmäki FC Nordsjaelland Active 131 / 127 40% 2 09.03.2027 -
Luca Barani Forli Active 86 / 91 40% 1 09.03.2027 -
Niklas Vesterlund Utrecht Active 104 / 112 40% 1 08.03.2027 -
Bitello Dinamo Moscow Active 135 / 136 40% 1 08.03.2027 -
Mateja Stjepanović Moreirense Active 119 / 131 40% 1 07.03.2027 -
Vinicius Tobias Shakhtar Active 149 / 124 40% 2 06.03.2027 -
Cristian Medina Botafogo Active 135 / 126 40% 1 05.03.2027 -
Leandro Martins Benfica Active 91 / 104 40% 1 02.03.2027 -
Sergi Domínguez Dinamo Zagreb Active 113 / 118 40% 1 02.03.2027 -
Miguel Reisinho Moreirense Active 107 / 126 40% 3 28.02.2027 -
Miguel Baeza Nacional Active 121 / 118 40% 1 28.02.2027 -
Helinho Toluca Active 130 / 134 40% 6 26.02.2027 -
Rubin Colwill Cardiff City Active 119 / 113 40% 1 25.02.2027 -
Myron van Brederode KV Mechelen Active 108 / 130 40% 1 22.02.2027 -
Matisse Samoise KAA Gent Active 121 / 124 40% 2 18.02.2027 -
Luís Guilherme Sporting CP Active 137 / 135 40% 4 16.02.2027 -
Olakunle Olusegun Rostov Active 107 / 130 40% 1 14.02.2027 -
Leandro Andrade Polissia Active 147 / 124 40% 2 13.02.2027 -
Keagan Hlatshwayo SuperSport United Active 126 / 128 40% 1 13.02.2027 -
Ilja Vakhania Krasnodar Active 108 / 129 40% 1 11.02.2027 -
Daniel Júnior Nacional Active 130 / 118 40% 1 07.02.2027 -
Weverson Gil Vicente Active 115 / 117 40% 1 06.02.2027 -
Luis Palma Lech Active 115 / 113 40% 2 05.02.2027 -
Romano Floriani Mussolini Modena Active 115 / 122 40% 1 05.02.2027 -
Naïs Djouahra Arouca Active 125 / 116 40% 2 04.02.2027 -
Diogo Spencer Alverca Active 109 / 113 40% 3 02.02.2027 -
Thomas Claes Zulte Waregem Active 112 / 126 40% 1 02.02.2027 -
Chris Lokesa Waasland-Beveren Active 112 / 127 40% 1 30.01.2027 -
Ali Soliman Masr El Makasa Rejected 129 / 135 40% 1 29.01.2027 Needs More Info
Michal Kohút Banik Ostrava Active 134 / 121 40% 2 28.01.2027 -
Federico Valentini Forli Active 92 / 99 40% 1 28.01.2027 -
Xavier Biscayzacú Defensor Sporting Active 124 / 129 40% 1 27.01.2027 -
MT Santa Clara Active 111 / 120 40% 1 25.01.2027 -
Louback Atlético Mineiro Active 90 / 98 40% 1 22.01.2027 -
Matheus Menezes Sport Recife Active 86 / 89 40% 1 22.01.2027 -
Nacer Tielemans Mouscron Active 128 / 143 40% 1 22.01.2027 -
Borna Knezović Casarano Active 98 / 101 40% 1 20.01.2027 -
Thapelo Maseko FC Copenhagen Active 126 / 121 40% 2 19.01.2027 -
Manu Pozo Torreense Active 113 / 112 40% 3 16.01.2027 -
Zak Swanson Doncaster Rovers Active 117 / 114 40% 1 16.01.2027 -
Franco Díaz KV Oostende Active 121 / 120 40% 1 15.01.2027 -
Nabil Touaizi Alverca Active 104 / 119 40% 1 12.01.2027 -
Mohamed Ali Ben Romdhane Al Ahly Active 125 / 125 40% 1 11.01.2027 -
Taichi Fukui Arouca Active 128 / 127 40% 1 31.12.2026 -
Angelo Gattermayer Wolfsberger AC Active 123 / 127 40% 1 31.12.2026 -
Ronaldo Vásquez Sumgayit Active 117 / 118 40% 1 30.12.2026 -
Robert FC Copenhagen Active 136 / 129 40% 1 30.12.2026 -
Milan Vukotić Partizan Active 126 / 124 40% 1 29.12.2026 -
Marcus McGuane Huddersfield Town Active 109 / 114 40% 1 26.12.2026 -
Alejandro Piedrahita Deportivo Pereira Active 116 / 117 40% 1 25.12.2026 -
Gustavo Silva Vitoria Guimaraes Active 131 / 120 40% 1 23.12.2026 -
Oswin Appollis Orlando Pirates Active 116 / 114 40% 1 21.12.2026 -
Simo Maritimo Active 107 / 117 40% 1 21.12.2026 -
Itumeleng Tau Ajax Cape Town Active 105 / 111 40% 2 18.12.2026 -
Roni AVS Active 113 / 112 40% 1 17.12.2026 -
Lindon Emërllahu Polissia Active 100 / 128 40% 1 17.12.2026 -
Romelu Mignolet Mouscron Active 118 / 128 40% 1 13.12.2026 -
Kimito Nono Gamba Osaka Active 109 / 124 40% 1 08.12.2026 -
Felipe Peña Biafore Lanús Active 118 / 127 40% 1 17.11.2026 -
Joaquim Tigres Active 125 / 138 40% 3 10.11.2026 -
Liam Varela Veracruz Active 144 / 125 40% 1 10.11.2026 -
Pedro Vite Pumas UNAM Active 135 / 134 40% 1 07.11.2026 -
Sergio Quintero La Equidad Active 138 / 145 40% 1 03.11.2026 -
Franco Romero Toluca Active 114 / 125 40% 1 03.11.2026 -
Adrián Sánchez Belgrano Active 120 / 120 40% 1 08.10.2026 -
Nicolás Romero Minnesota United FC Active 140 / 137 40% 1 08.10.2026 -
Juan Mosquera Portland Timbers Active 125 / 121 40% 1 07.10.2026 -
Lasse Berg Johnsen Sporting Kansas City Active 117 / 132 40% 1 07.10.2026 -
Tomás Bottari Independiente Rivadavia Active 136 / 122 40% 1 05.10.2026 -
Ricardo Batista Casa Pia Active 95 / 112 44% 1 10.08.2026 -